Flight Track Log - Related Links

Times and Time Zones

All times are in EDT time to prevent confusion due to time zone crossing. See the JLG821 flight status page for this flight to view local times or setup timezone preferences in your user account.

Time Position Orientation Groundspeed Altitude Reporting Facility
EDT Latitude Longitude Course Direction KTS MPH feet Rate Location/Type
Thu 06:57:39 PM 35.2306 -80.9392 69° East 141 162 1,600  Level Atlanta Center
Thu 06:58:21 PM 35.2447 -80.9183 50° Northeast 140 161 3,300 1,864 Climbing Atlanta Center
Thu 06:59:22 PM 35.2369 -80.8678 101° East 160 184 4,800 885 Climbing Atlanta Center
Thu 07:00:23 PM 35.2311 -80.7944 96° East 228 262 5,100 621 Climbing Atlanta Center
Thu 07:01:18 PM 35.2311 -80.7256 90° East 232 267 6,000 1,475 Climbing Atlanta Center
Thu 07:02:25 PM 35.2333 -80.6492 88° East 192 221 8,100 1,781 Climbing Atlanta Center
Thu 07:03:00 PM 35.3373 -80.5588 69° East  Level Estimated
Thu 07:03:26 PM 35.2314 -80.5808 92° East 206 237 9,800  Level Atlanta Center
Thu 07:04:27 PM 35.2272 -80.5047 94° East 229 264 11,000 590 Climbing Atlanta Center
Thu 07:05:28 PM 35.2244 -80.4158 92° East 278 320 11,000  Level Atlanta Center
Thu 07:06:29 PM 35.2214 -80.3117 92° East 295 339 11,000  Level Atlanta Center
Thu 07:08:27 PM 35.2192 -80.1125 91° East 311 358 11,000 -34 Level Washington Center
Thu 07:09:27 PM 35.2164 -80.0258 92° East 301 346 10,900 -50 Descending Washington Center
Thu 07:10:27 PM 35.2119 -79.9164 93° East 296 341 10,900  Level Washington Center
Thu 07:11:27 PM 35.2150 -79.8300 87° East 283 326 10,900  Level Washington Center
Thu 07:12:27 PM 35.2144 -79.7283 90° East 272 313 10,900  Level Washington Center
Thu 07:13:27 PM 35.2153 -79.6469 89° East 272 313 10,900  Level Washington Center
Thu 07:14:27 PM 35.2228 -79.5456 85° East 272 313 10,900  Level Washington Center
Thu 07:15:27 PM 35.2825 -79.5053 29° Northeast 232 267 10,900  Level Washington Center
Thu 07:16:27 PM 35.3547 -79.4681 23° Northeast 243 280 10,900 60 Level Washington Center
Thu 07:17:07 PM 35.4011 -79.4475 20° North 257 296 11,000  Climbing Washington Center
Thu 07:17:27 PM 35.4181 -79.4406 18° North 254 292 10,900  Descending Washington Center
Thu 07:18:07 PM 35.4689 -79.4175 20° North 261 300 11,000  Climbing Washington Center
Thu 07:18:27 PM 35.4903 -79.4006 33° Northeast 254 292 10,900 -98 Descending Washington Center
Thu 07:19:08 PM 35.5292 -79.3642 37° Northeast 266 306 10,900 -200 Level Washington Center
Thu 07:19:27 PM 35.5400 -79.3494 48° Northeast 259 298 10,700 -885 Descending Washington Center
Thu 07:20:09 PM 35.5811 -79.3053 41° Northeast 262 302 10,000 -1,000 Descending Washington Center
Thu 07:20:27 PM 35.5942 -79.2856 51° Northeast 254 292 9,700 -1,600 Descending Washington Center
Thu 07:21:09 PM 35.6272 -79.2258 56° Northeast 268 308 8,400 -1,600 Descending Washington Center
Thu 07:21:27 PM 35.6403 -79.2058 51° Northeast 265 305 8,100 -1,279 Descending Washington Center
Thu 07:22:10 PM 35.6692 -79.1536 56° Northeast 260 299 7,100 -1,200 Descending Washington Center
Thu 07:22:27 PM 35.6758 -79.1358 65° Northeast 259 298 6,900 -1,063 Descending Washington Center
Thu 07:23:29 PM 35.7075 -79.0556 64° Northeast 231 266 5,700 -1,100 Descending Washington Center
Thu 07:24:27 PM 35.7342 -78.9953 61° Northeast 219 252 4,700 -1,068 Descending Washington Center
Thu 07:25:27 PM 35.7650 -78.9403 55° Northeast 204 235 3,600 -1,050 Descending Washington Center
Thu 07:26:27 PM 35.8039 -78.8933 44° Northeast 193 222 2,600 -969 Descending Washington Center
Thu 07:27:37 PM 35.8322 -78.8508 51° Northeast 123 142 1,500 -824 Descending Washington Center
Thu 07:28:38 PM 35.8600 -78.8214 41° Northeast 122 140 800 -689 Descending Washington Center
Thu 07:30:00 PM 35.8667 -78.7833 51° Northeast  Level FlightAware Approximate
Thu 07:37:00 PM 35.8776 -78.7875 51° Northeast  Level Estimated

Login

Don't have an account? Register now (free) for customized features, flight alerts, and more!